sensor_id;sensor_type;location;lat;lon;timestamp;temperature;humidity
12089;DHT22;6107;49.078;8.578;2023-07-09T00:01:37;19.90;99.90
12089;DHT22;6107;49.078;8.578;2023-07-09T00:04:03;19.90;99.90
12089;DHT22;6107;49.078;8.578;2023-07-09T00:06:28;19.90;99.90
12089;DHT22;6107;49.078;8.578;2023-07-09T00:08:54;20.00;99.90
12089;DHT22;6107;49.078;8.578;2023-07-09T00:11:19;20.00;99.90
12089;DHT22;6107;49.078;8.578;2023-07-09T00:13:45;20.00;99.90
12089;DHT22;6107;49.078;8.578;2023-07-09T00:16:16;20.00;99.90
12089;DHT22;6107;49.078;8.578;2023-07-09T00:18:43;20.00;99.90
12089;DHT22;6107;49.078;8.578;2023-07-09T00:21:09;19.90;99.90
12089;DHT22;6107;49.078;8.578;2023-07-09T00:23:35;19.90;99.90
12089;DHT22;6107;49.078;8.578;2023-07-09T00:26:10;19.80;99.90
12089;DHT22;6107;49.078;8.578;2023-07-09T00:28:42;19.90;99.90
12089;DHT22;6107;49.078;8.578;2023-07-09T00:31:12;19.90;99.90
12089;DHT22;6107;49.078;8.578;2023-07-09T00:33:41;20.00;99.90
12089;DHT22;6107;49.078;8.578;2023-07-09T00:36:27;20.00;99.90
12089;DHT22;6107;49.078;8.578;2023-07-09T00:38:54;19.90;99.90
12089;DHT22;6107;49.078;8.578;2023-07-09T00:41:22;19.90;99.90
12089;DHT22;6107;49.078;8.578;2023-07-09T00:43:50;19.80;99.90
12089;DHT22;6107;49.078;8.578;2023-07-09T00:49:07;19.70;99.90
12089;DHT22;6107;49.078;8.578;2023-07-09T00:51:38;19.70;99.90
12089;DHT22;6107;49.078;8.578;2023-07-09T00:54:26;19.80;99.90
12089;DHT22;6107;49.078;8.578;2023-07-09T00:56:58;19.70;99.90
12089;DHT22;6107;49.078;8.578;2023-07-09T00:59:27;19.70;99.90
12089;DHT22;6107;49.078;8.578;2023-07-09T01:01:55;19.60;99.90
12089;DHT22;6107;49.078;8.578;2023-07-09T01:04:23;19.50;99.90
12089;DHT22;6107;49.078;8.578;2023-07-09T01:06:53;19.50;99.90
12089;DHT22;6107;49.078;8.578;2023-07-09T01:09:21;19.60;99.90
12089;DHT22;6107;49.078;8.578;2023-07-09T01:11:47;19.50;99.90
12089;DHT22;6107;49.078;8.578;2023-07-09T01:14:15;19.50;99.90
12089;DHT22;6107;49.078;8.578;2023-07-09T01:16:58;19.50;99.90
12089;DHT22;6107;49.078;8.578;2023-07-09T01:19:27;19.50;99.90
12089;DHT22;6107;49.078;8.578;2023-07-09T01:21:58;19.50;99.90
12089;DHT22;6107;49.078;8.578;2023-07-09T01:27:11;19.50;99.90
12089;DHT22;6107;49.078;8.578;2023-07-09T01:29:37;19.40;99.90
12089;DHT22;6107;49.078;8.578;2023-07-09T01:32:03;19.30;99.90
12089;DHT22;6107;49.078;8.578;2023-07-09T01:34:29;19.20;99.90
12089;DHT22;6107;49.078;8.578;2023-07-09T01:36:55;19.10;99.90
12089;DHT22;6107;49.078;8.578;2023-07-09T01:39:21;19.10;99.90
12089;DHT22;6107;49.078;8.578;2023-07-09T01:41:47;19.10;99.90
12089;DHT22;6107;49.078;8.578;2023-07-09T01:44:12;19.10;99.90
12089;DHT22;6107;49.078;8.578;2023-07-09T01:46:39;19.10;99.90
12089;DHT22;6107;49.078;8.578;2023-07-09T01:49:05;19.10;99.90
12089;DHT22;6107;49.078;8.578;2023-07-09T01:51:33;19.00;99.90
12089;DHT22;6107;49.078;8.578;2023-07-09T01:53:58;18.90;99.90
12089;DHT22;6107;49.078;8.578;2023-07-09T01:56:25;18.80;99.90
12089;DHT22;6107;49.078;8.578;2023-07-09T01:58:50;18.80;99.90
12089;DHT22;6107;49.078;8.578;2023-07-09T02:01:16;18.90;99.90
12089;DHT22;6107;49.078;8.578;2023-07-09T02:03:45;19.00;99.90
12089;DHT22;6107;49.078;8.578;2023-07-09T02:06:11;19.00;99.90
12089;DHT22;6107;49.078;8.578;2023-07-09T02:08:36;19.10;99.90
12089;DHT22;6107;49.078;8.578;2023-07-09T02:11:02;19.00;99.90
12089;DHT22;6107;49.078;8.578;2023-07-09T02:13:28;18.90;99.90
12089;DHT22;6107;49.078;8.578;2023-07-09T02:15:53;18.80;99.90
12089;DHT22;6107;49.078;8.578;2023-07-09T02:18:19;18.70;99.90
12089;DHT22;6107;49.078;8.578;2023-07-09T02:20:48;18.70;99.90
12089;DHT22;6107;49.078;8.578;2023-07-09T02:23:13;18.70;99.90
12089;DHT22;6107;49.078;8.578;2023-07-09T02:25:39;18.70;99.90
12089;DHT22;6107;49.078;8.578;2023-07-09T02:28:04;18.60;99.90
12089;DHT22;6107;49.078;8.578;2023-07-09T02:30:30;18.70;99.90
12089;DHT22;6107;49.078;8.578;2023-07-09T02:32:55;18.60;99.90
12089;DHT22;6107;49.078;8.578;2023-07-09T02:35:22;18.60;99.90
12089;DHT22;6107;49.078;8.578;2023-07-09T02:37:47;18.60;99.90
12089;DHT22;6107;49.078;8.578;2023-07-09T02:40:13;18.50;99.90
12089;DHT22;6107;49.078;8.578;2023-07-09T02:42:39;18.50;99.90
12089;DHT22;6107;49.078;8.578;2023-07-09T02:45:05;18.50;99.90
12089;DHT22;6107;49.078;8.578;2023-07-09T02:47:31;18.50;99.90
12089;DHT22;6107;49.078;8.578;2023-07-09T02:49:56;18.50;99.90
12089;DHT22;6107;49.078;8.578;2023-07-09T02:52:22;18.50;99.90
12089;DHT22;6107;49.078;8.578;2023-07-09T02:54:47;18.50;99.90
12089;DHT22;6107;49.078;8.578;2023-07-09T02:57:13;18.30;99.90
12089;DHT22;6107;49.078;8.578;2023-07-09T02:59:38;18.30;99.90
12089;DHT22;6107;49.078;8.578;2023-07-09T03:02:04;18.30;99.90
12089;DHT22;6107;49.078;8.578;2023-07-09T03:04:30;18.40;99.90
12089;DHT22;6107;49.078;8.578;2023-07-09T03:06:59;18.40;99.90
12089;DHT22;6107;49.078;8.578;2023-07-09T03:09:25;18.40;99.90
12089;DHT22;6107;49.078;8.578;2023-07-09T03:11:52;18.30;99.90
12089;DHT22;6107;49.078;8.578;2023-07-09T03:14:17;18.30;99.90
12089;DHT22;6107;49.078;8.578;2023-07-09T03:16:43;18.10;99.90
12089;DHT22;6107;49.078;8.578;2023-07-09T03:19:08;17.90;99.90
12089;DHT22;6107;49.078;8.578;2023-07-09T03:21:34;18.00;99.90
12089;DHT22;6107;49.078;8.578;2023-07-09T03:23:59;18.10;99.90
12089;DHT22;6107;49.078;8.578;2023-07-09T03:26:25;18.20;99.90
12089;DHT22;6107;49.078;8.578;2023-07-09T03:28:52;18.00;99.90
12089;DHT22;6107;49.078;8.578;2023-07-09T03:31:18;18.10;99.90
12089;DHT22;6107;49.078;8.578;2023-07-09T03:33:46;18.10;99.90
12089;DHT22;6107;49.078;8.578;2023-07-09T03:36:12;18.20;99.90
12089;DHT22;6107;49.078;8.578;2023-07-09T03:38:37;18.00;99.90
12089;DHT22;6107;49.078;8.578;2023-07-09T03:41:03;18.10;99.90
12089;DHT22;6107;49.078;8.578;2023-07-09T03:43:28;18.10;99.90
12089;DHT22;6107;49.078;8.578;2023-07-09T03:45:54;18.10;99.90
12089;DHT22;6107;49.078;8.578;2023-07-09T03:48:19;18.10;99.90
12089;DHT22;6107;49.078;8.578;2023-07-09T03:50:46;18.10;99.90
12089;DHT22;6107;49.078;8.578;2023-07-09T03:53:12;18.10;99.90
12089;DHT22;6107;49.078;8.578;2023-07-09T03:55:38;17.90;99.90
12089;DHT22;6107;49.078;8.578;2023-07-09T03:58:04;17.80;99.90
12089;DHT22;6107;49.078;8.578;2023-07-09T04:00:31;17.60;99.90
12089;DHT22;6107;49.078;8.578;2023-07-09T04:02:57;17.60;99.90
12089;DHT22;6107;49.078;8.578;2023-07-09T04:05:23;17.90;99.90
12089;DHT22;6107;49.078;8.578;2023-07-09T04:07:49;18.10;99.90
12089;DHT22;6107;49.078;8.578;2023-07-09T04:10:15;18.10;99.90
12089;DHT22;6107;49.078;8.578;2023-07-09T04:12:41;18.10;99.90
12089;DHT22;6107;49.078;8.578;2023-07-09T04:15:08;18.40;99.90
12089;DHT22;6107;49.078;8.578;2023-07-09T04:17:34;18.30;99.90
12089;DHT22;6107;49.078;8.578;2023-07-09T04:19:59;18.60;99.90
12089;DHT22;6107;49.078;8.578;2023-07-09T04:22:25;18.60;99.90
12089;DHT22;6107;49.078;8.578;2023-07-09T04:24:51;18.40;99.90
12089;DHT22;6107;49.078;8.578;2023-07-09T04:27:18;18.60;99.90
12089;DHT22;6107;49.078;8.578;2023-07-09T04:29:43;18.70;99.90
12089;DHT22;6107;49.078;8.578;2023-07-09T04:32:14;18.70;99.90
12089;DHT22;6107;49.078;8.578;2023-07-09T04:34:40;18.60;99.90
12089;DHT22;6107;49.078;8.578;2023-07-09T04:37:10;18.80;99.90
12089;DHT22;6107;49.078;8.578;2023-07-09T04:39:37;19.00;99.90
12089;DHT22;6107;49.078;8.578;2023-07-09T04:42:03;19.00;99.90
12089;DHT22;6107;49.078;8.578;2023-07-09T04:44:29;18.90;99.90
12089;DHT22;6107;49.078;8.578;2023-07-09T04:46:55;19.00;99.90
12089;DHT22;6107;49.078;8.578;2023-07-09T04:49:20;19.20;99.90
12089;DHT22;6107;49.078;8.578;2023-07-09T04:51:47;19.30;99.90
12089;DHT22;6107;49.078;8.578;2023-07-09T04:54:13;19.30;99.90
12089;DHT22;6107;49.078;8.578;2023-07-09T04:56:41;19.40;99.90
12089;DHT22;6107;49.078;8.578;2023-07-09T04:59:11;19.60;99.90
12089;DHT22;6107;49.078;8.578;2023-07-09T05:01:36;19.70;99.90
12089;DHT22;6107;49.078;8.578;2023-07-09T05:04:02;19.60;99.90
12089;DHT22;6107;49.078;8.578;2023-07-09T05:06:28;19.60;99.90
12089;DHT22;6107;49.078;8.578;2023-07-09T05:08:53;19.70;99.90
12089;DHT22;6107;49.078;8.578;2023-07-09T05:11:19;19.80;99.90
12089;DHT22;6107;49.078;8.578;2023-07-09T05:13:45;19.80;99.90
12089;DHT22;6107;49.078;8.578;2023-07-09T05:16:10;20.00;99.90
12089;DHT22;6107;49.078;8.578;2023-07-09T05:18:36;19.80;99.90
12089;DHT22;6107;49.078;8.578;2023-07-09T05:21:02;20.10;99.90
12089;DHT22;6107;49.078;8.578;2023-07-09T05:23:28;20.00;99.90
12089;DHT22;6107;49.078;8.578;2023-07-09T05:26:01;20.00;99.90
12089;DHT22;6107;49.078;8.578;2023-07-09T05:28:28;20.00;99.90
12089;DHT22;6107;49.078;8.578;2023-07-09T05:30:54;20.10;99.90
12089;DHT22;6107;49.078;8.578;2023-07-09T05:33:20;20.40;99.90
12089;DHT22;6107;49.078;8.578;2023-07-09T05:35:46;20.30;99.90
12089;DHT22;6107;49.078;8.578;2023-07-09T05:38:18;20.40;99.90
12089;DHT22;6107;49.078;8.578;2023-07-09T05:40:44;20.40;99.90
12089;DHT22;6107;49.078;8.578;2023-07-09T05:43:10;20.50;99.90
12089;DHT22;6107;49.078;8.578;2023-07-09T05:45:39;20.60;99.90
12089;DHT22;6107;49.078;8.578;2023-07-09T05:48:28;20.70;99.90
12089;DHT22;6107;49.078;8.578;2023-07-09T05:50:54;20.80;99.90
12089;DHT22;6107;49.078;8.578;2023-07-09T05:53:28;21.10;99.90
12089;DHT22;6107;49.078;8.578;2023-07-09T05:55:55;21.60;99.90
12089;DHT22;6107;49.078;8.578;2023-07-09T05:58:24;21.90;99.90
12089;DHT22;6107;49.078;8.578;2023-07-09T06:00:51;21.90;99.90
12089;DHT22;6107;49.078;8.578;2023-07-09T06:03:20;22.20;99.90
12089;DHT22;6107;49.078;8.578;2023-07-09T06:05:49;22.50;99.90
12089;DHT22;6107;49.078;8.578;2023-07-09T06:08:16;22.50;99.90
12089;DHT22;6107;49.078;8.578;2023-07-09T06:10:52;22.90;99.90
12089;DHT22;6107;49.078;8.578;2023-07-09T06:13:19;22.90;99.90
12089;DHT22;6107;49.078;8.578;2023-07-09T06:15:46;23.00;99.90
12089;DHT22;6107;49.078;8.578;2023-07-09T06:18:12;23.00;99.90
12089;DHT22;6107;49.078;8.578;2023-07-09T06:20:38;23.30;99.90
12089;DHT22;6107;49.078;8.578;2023-07-09T06:23:04;23.40;99.90
12089;DHT22;6107;49.078;8.578;2023-07-09T06:25:29;23.40;99.90
12089;DHT22;6107;49.078;8.578;2023-07-09T06:27:56;23.20;99.90
12089;DHT22;6107;49.078;8.578;2023-07-09T06:30:22;23.30;99.90
12089;DHT22;6107;49.078;8.578;2023-07-09T06:32:47;23.40;99.90
12089;DHT22;6107;49.078;8.578;2023-07-09T06:35:13;23.50;99.90
12089;DHT22;6107;49.078;8.578;2023-07-09T06:37:38;23.60;99.90
12089;DHT22;6107;49.078;8.578;2023-07-09T06:40:04;23.50;99.90
12089;DHT22;6107;49.078;8.578;2023-07-09T06:42:32;23.50;99.90
12089;DHT22;6107;49.078;8.578;2023-07-09T06:44:58;23.60;99.90
12089;DHT22;6107;49.078;8.578;2023-07-09T06:47:23;23.70;99.90
12089;DHT22;6107;49.078;8.578;2023-07-09T06:49:49;23.90;99.90
12089;DHT22;6107;49.078;8.578;2023-07-09T06:52:14;24.00;99.90
12089;DHT22;6107;49.078;8.578;2023-07-09T06:54:40;24.10;99.90
12089;DHT22;6107;49.078;8.578;2023-07-09T06:57:08;24.20;99.90
12089;DHT22;6107;49.078;8.578;2023-07-09T06:59:34;24.40;99.90
12089;DHT22;6107;49.078;8.578;2023-07-09T07:01:59;24.40;99.90
12089;DHT22;6107;49.078;8.578;2023-07-09T07:04:26;24.50;99.90
12089;DHT22;6107;49.078;8.578;2023-07-09T07:06:52;24.70;99.90
12089;DHT22;6107;49.078;8.578;2023-07-09T07:09:18;24.70;99.90
12089;DHT22;6107;49.078;8.578;2023-07-09T07:11:43;24.90;99.90
12089;DHT22;6107;49.078;8.578;2023-07-09T07:14:09;24.80;99.90
12089;DHT22;6107;49.078;8.578;2023-07-09T07:16:34;25.00;99.90
12089;DHT22;6107;49.078;8.578;2023-07-09T07:19:00;25.10;99.90
12089;DHT22;6107;49.078;8.578;2023-07-09T07:24:47;25.40;99.90
12089;DHT22;6107;49.078;8.578;2023-07-09T07:27:13;25.50;99.90
12089;DHT22;6107;49.078;8.578;2023-07-09T07:29:38;25.60;99.90
12089;DHT22;6107;49.078;8.578;2023-07-09T07:32:04;25.70;99.90
12089;DHT22;6107;49.078;8.578;2023-07-09T07:34:30;25.90;99.90
12089;DHT22;6107;49.078;8.578;2023-07-09T07:36:55;26.00;99.90
12089;DHT22;6107;49.078;8.578;2023-07-09T07:39:21;26.20;99.90
12089;DHT22;6107;49.078;8.578;2023-07-09T07:41:47;26.30;99.90
12089;DHT22;6107;49.078;8.578;2023-07-09T07:44:14;26.50;99.90
12089;DHT22;6107;49.078;8.578;2023-07-09T07:46:42;26.80;99.90
12089;DHT22;6107;49.078;8.578;2023-07-09T07:49:08;26.70;99.90
12089;DHT22;6107;49.078;8.578;2023-07-09T07:51:33;26.90;99.90
12089;DHT22;6107;49.078;8.578;2023-07-09T07:53:59;27.10;99.90
12089;DHT22;6107;49.078;8.578;2023-07-09T07:56:25;27.10;99.90
12089;DHT22;6107;49.078;8.578;2023-07-09T07:58:51;27.10;99.90
12089;DHT22;6107;49.078;8.578;2023-07-09T08:01:16;27.30;99.90
12089;DHT22;6107;49.078;8.578;2023-07-09T08:03:42;27.40;99.90
12089;DHT22;6107;49.078;8.578;2023-07-09T08:06:08;27.50;99.90
12089;DHT22;6107;49.078;8.578;2023-07-09T08:08:33;27.70;99.90
12089;DHT22;6107;49.078;8.578;2023-07-09T08:11:03;27.80;99.90
12089;DHT22;6107;49.078;8.578;2023-07-09T08:13:32;27.90;99.90
12089;DHT22;6107;49.078;8.578;2023-07-09T08:15:58;28.00;99.90
12089;DHT22;6107;49.078;8.578;2023-07-09T08:18:24;28.30;99.90
12089;DHT22;6107;49.078;8.578;2023-07-09T08:20:49;28.40;99.90
12089;DHT22;6107;49.078;8.578;2023-07-09T08:23:15;28.60;99.90
12089;DHT22;6107;49.078;8.578;2023-07-09T08:25:40;28.70;99.90
12089;DHT22;6107;49.078;8.578;2023-07-09T08:28:06;28.90;99.90
12089;DHT22;6107;49.078;8.578;2023-07-09T08:30:31;28.90;99.90
12089;DHT22;6107;49.078;8.578;2023-07-09T08:32:57;29.10;99.90
12089;DHT22;6107;49.078;8.578;2023-07-09T08:35:23;29.20;99.90
12089;DHT22;6107;49.078;8.578;2023-07-09T08:37:48;29.40;99.90
12089;DHT22;6107;49.078;8.578;2023-07-09T08:40:16;29.60;99.90
12089;DHT22;6107;49.078;8.578;2023-07-09T08:42:48;29.70;99.90
12089;DHT22;6107;49.078;8.578;2023-07-09T08:45:24;29.80;99.90
12089;DHT22;6107;49.078;8.578;2023-07-09T08:48:04;30.00;99.90
12089;DHT22;6107;49.078;8.578;2023-07-09T08:50:54;30.00;99.90
12089;DHT22;6107;49.078;8.578;2023-07-09T08:53:25;30.20;99.90
12089;DHT22;6107;49.078;8.578;2023-07-09T08:55:54;30.50;99.90
12089;DHT22;6107;49.078;8.578;2023-07-09T08:58:28;30.60;99.90
12089;DHT22;6107;49.078;8.578;2023-07-09T09:00:56;30.90;99.90
12089;DHT22;6107;49.078;8.578;2023-07-09T09:03:53;31.10;99.90
12089;DHT22;6107;49.078;8.578;2023-07-09T09:06:25;31.30;99.90
12089;DHT22;6107;49.078;8.578;2023-07-09T09:09:02;31.50;99.90
12089;DHT22;6107;49.078;8.578;2023-07-09T09:11:43;31.50;99.90
12089;DHT22;6107;49.078;8.578;2023-07-09T09:16:52;31.80;99.90
12089;DHT22;6107;49.078;8.578;2023-07-09T09:19:27;32.10;99.90
12089;DHT22;6107;49.078;8.578;2023-07-09T09:22:00;32.10;99.90
12089;DHT22;6107;49.078;8.578;2023-07-09T09:24:36;32.40;99.90
12089;DHT22;6107;49.078;8.578;2023-07-09T09:27:02;32.30;99.90
12089;DHT22;6107;49.078;8.578;2023-07-09T09:29:28;32.50;99.90
12089;DHT22;6107;49.078;8.578;2023-07-09T09:31:56;32.60;99.90
12089;DHT22;6107;49.078;8.578;2023-07-09T09:34:25;33.20;99.90
12089;DHT22;6107;49.078;8.578;2023-07-09T09:36:52;33.10;99.90
12089;DHT22;6107;49.078;8.578;2023-07-09T09:39:18;33.20;99.90
12089;DHT22;6107;49.078;8.578;2023-07-09T09:41:44;33.40;99.90
12089;DHT22;6107;49.078;8.578;2023-07-09T09:44:19;33.60;99.90
12089;DHT22;6107;49.078;8.578;2023-07-09T09:46:47;33.70;99.90
12089;DHT22;6107;49.078;8.578;2023-07-09T09:49:13;33.80;99.90
12089;DHT22;6107;49.078;8.578;2023-07-09T09:51:40;33.80;99.90
12089;DHT22;6107;49.078;8.578;2023-07-09T09:54:16;34.00;99.90
12089;DHT22;6107;49.078;8.578;2023-07-09T09:56:42;34.10;99.90
12089;DHT22;6107;49.078;8.578;2023-07-09T09:59:25;34.30;99.90
12089;DHT22;6107;49.078;8.578;2023-07-09T10:02:00;34.60;99.90
12089;DHT22;6107;49.078;8.578;2023-07-09T10:04:27;34.60;99.90
12089;DHT22;6107;49.078;8.578;2023-07-09T10:06:56;34.80;99.90
12089;DHT22;6107;49.078;8.578;2023-07-09T10:16:59;35.00;99.90
12089;DHT22;6107;49.078;8.578;2023-07-09T10:19:36;35.00;99.90
12089;DHT22;6107;49.078;8.578;2023-07-09T10:25:06;35.30;99.90
12089;DHT22;6107;49.078;8.578;2023-07-09T10:27:42;35.60;99.90
12089;DHT22;6107;49.078;8.578;2023-07-09T10:33:16;36.10;99.90
12089;DHT22;6107;49.078;8.578;2023-07-09T10:36:18;36.20;99.90
12089;DHT22;6107;49.078;8.578;2023-07-09T10:39:07;36.40;99.90
12089;DHT22;6107;49.078;8.578;2023-07-09T10:41:37;36.40;99.90
12089;DHT22;6107;49.078;8.578;2023-07-09T10:46:43;36.50;99.90
12089;DHT22;6107;49.078;8.578;2023-07-09T10:49:13;36.80;99.90
12089;DHT22;6107;49.078;8.578;2023-07-09T10:51:48;36.50;99.90
12089;DHT22;6107;49.078;8.578;2023-07-09T10:54:39;36.50;99.90
12089;DHT22;6107;49.078;8.578;2023-07-09T10:57:44;36.60;99.90
12089;DHT22;6107;49.078;8.578;2023-07-09T11:00:19;36.90;99.90
12089;DHT22;6107;49.078;8.578;2023-07-09T11:02:57;37.10;99.90
12089;DHT22;6107;49.078;8.578;2023-07-09T11:05:23;37.20;99.90
12089;DHT22;6107;49.078;8.578;2023-07-09T11:08:11;37.20;95.60
12089;DHT22;6107;49.078;8.578;2023-07-09T11:10:59;37.40;98.10
12089;DHT22;6107;49.078;8.578;2023-07-09T11:13:39;37.60;97.70
12089;DHT22;6107;49.078;8.578;2023-07-09T11:16:08;37.60;95.60
12089;DHT22;6107;49.078;8.578;2023-07-09T11:18:36;37.50;94.40
12089;DHT22;6107;49.078;8.578;2023-07-09T11:21:08;37.70;95.50
12089;DHT22;6107;49.078;8.578;2023-07-09T11:23:57;37.70;94.40
12089;DHT22;6107;49.078;8.578;2023-07-09T11:26:25;37.90;94.80
12089;DHT22;6107;49.078;8.578;2023-07-09T11:31:36;38.20;92.40
12089;DHT22;6107;49.078;8.578;2023-07-09T11:34:08;38.00;93.20
12089;DHT22;6107;49.078;8.578;2023-07-09T11:36:48;37.50;91.10
12089;DHT22;6107;49.078;8.578;2023-07-09T11:39:26;37.90;96.50
12089;DHT22;6107;49.078;8.578;2023-07-09T11:41:52;38.50;92.90
12089;DHT22;6107;49.078;8.578;2023-07-09T11:44:21;38.80;97.40
12089;DHT22;6107;49.078;8.578;2023-07-09T11:47:16;39.00;95.30
12089;DHT22;6107;49.078;8.578;2023-07-09T11:50:00;38.70;92.40
12089;DHT22;6107;49.078;8.578;2023-07-09T11:52:42;38.30;92.40
12089;DHT22;6107;49.078;8.578;2023-07-09T11:55:28;38.70;96.40
12089;DHT22;6107;49.078;8.578;2023-07-09T11:58:01;40.30;93.40
12089;DHT22;6107;49.078;8.578;2023-07-09T12:00:46;38.90;79.50
12089;DHT22;6107;49.078;8.578;2023-07-09T12:03:34;38.60;75.60
12089;DHT22;6107;49.078;8.578;2023-07-09T12:06:13;38.50;77.70
12089;DHT22;6107;49.078;8.578;2023-07-09T12:08:42;38.60;82.80
12089;DHT22;6107;49.078;8.578;2023-07-09T12:11:43;38.60;74.80
12089;DHT22;6107;49.078;8.578;2023-07-09T12:14:13;39.10;78.40
12089;DHT22;6107;49.078;8.578;2023-07-09T12:16:41;39.30;81.50
12089;DHT22;6107;49.078;8.578;2023-07-09T12:19:11;39.40;81.80
12089;DHT22;6107;49.078;8.578;2023-07-09T12:21:39;39.30;83.40
12089;DHT22;6107;49.078;8.578;2023-07-09T12:24:29;39.50;80.30
12089;DHT22;6107;49.078;8.578;2023-07-09T12:26:59;39.60;80.30
12089;DHT22;6107;49.078;8.578;2023-07-09T12:29:29;39.50;80.80
12089;DHT22;6107;49.078;8.578;2023-07-09T12:34:23;40.00;82.00
12089;DHT22;6107;49.078;8.578;2023-07-09T12:36:51;40.20;82.60
12089;DHT22;6107;49.078;8.578;2023-07-09T12:39:25;40.40;82.70
12089;DHT22;6107;49.078;8.578;2023-07-09T12:41:56;40.20;79.00
12089;DHT22;6107;49.078;8.578;2023-07-09T12:44:23;39.70;74.50
12089;DHT22;6107;49.078;8.578;2023-07-09T12:46:51;39.40;68.70
12089;DHT22;6107;49.078;8.578;2023-07-09T12:49:25;39.50;78.10
12089;DHT22;6107;49.078;8.578;2023-07-09T12:51:57;39.70;72.90
12089;DHT22;6107;49.078;8.578;2023-07-09T12:54:27;39.90;74.60
12089;DHT22;6107;49.078;8.578;2023-07-09T12:56:54;40.10;78.30
12089;DHT22;6107;49.078;8.578;2023-07-09T12:59:25;40.30;72.30
12089;DHT22;6107;49.078;8.578;2023-07-09T13:02:09;39.70;68.30
12089;DHT22;6107;49.078;8.578;2023-07-09T13:04:39;39.60;75.40
12089;DHT22;6107;49.078;8.578;2023-07-09T13:09:31;39.10;66.60
12089;DHT22;6107;49.078;8.578;2023-07-09T13:11:58;39.30;67.40
12089;DHT22;6107;49.078;8.578;2023-07-09T13:14:26;39.50;72.70
12089;DHT22;6107;49.078;8.578;2023-07-09T13:16:52;39.70;75.10
12089;DHT22;6107;49.078;8.578;2023-07-09T13:19:18;39.80;72.00
12089;DHT22;6107;49.078;8.578;2023-07-09T13:21:45;40.10;78.00
12089;DHT22;6107;49.078;8.578;2023-07-09T13:24:19;40.00;73.70
12089;DHT22;6107;49.078;8.578;2023-07-09T13:26:46;40.10;71.60
12089;DHT22;6107;49.078;8.578;2023-07-09T13:29:14;40.30;75.00
12089;DHT22;6107;49.078;8.578;2023-07-09T13:34:39;40.50;73.00
12089;DHT22;6107;49.078;8.578;2023-07-09T13:37:14;40.40;71.90
12089;DHT22;6107;49.078;8.578;2023-07-09T13:39:40;40.40;70.30
12089;DHT22;6107;49.078;8.578;2023-07-09T13:42:14;40.40;70.50
12089;DHT22;6107;49.078;8.578;2023-07-09T13:47:12;40.60;68.70
12089;DHT22;6107;49.078;8.578;2023-07-09T13:49:40;40.60;69.60
12089;DHT22;6107;49.078;8.578;2023-07-09T13:52:14;40.20;60.60
12089;DHT22;6107;49.078;8.578;2023-07-09T13:54:40;40.00;63.80
12089;DHT22;6107;49.078;8.578;2023-07-09T13:57:09;39.50;60.20
12089;DHT22;6107;49.078;8.578;2023-07-09T13:59:39;39.50;70.60
12089;DHT22;6107;49.078;8.578;2023-07-09T14:04:51;39.40;67.50
12089;DHT22;6107;49.078;8.578;2023-07-09T14:07:31;39.30;64.80
12089;DHT22;6107;49.078;8.578;2023-07-09T14:09:58;39.40;70.80
12089;DHT22;6107;49.078;8.578;2023-07-09T14:12:24;39.60;65.50
12089;DHT22;6107;49.078;8.578;2023-07-09T14:14:51;40.00;66.50
12089;DHT22;6107;49.078;8.578;2023-07-09T14:17:20;40.10;64.10
12089;DHT22;6107;49.078;8.578;2023-07-09T14:19:48;40.10;66.50
12089;DHT22;6107;49.078;8.578;2023-07-09T14:22:36;39.90;66.90
12089;DHT22;6107;49.078;8.578;2023-07-09T14:25:04;39.90;68.50
12089;DHT22;6107;49.078;8.578;2023-07-09T14:27:30;39.80;64.40
12089;DHT22;6107;49.078;8.578;2023-07-09T14:29:56;39.70;66.30
12089;DHT22;6107;49.078;8.578;2023-07-09T14:32:48;39.50;63.20
12089;DHT22;6107;49.078;8.578;2023-07-09T14:35:19;39.50;62.70
12089;DHT22;6107;49.078;8.578;2023-07-09T14:37:51;39.40;63.20
12089;DHT22;6107;49.078;8.578;2023-07-09T14:40:18;39.50;65.50
12089;DHT22;6107;49.078;8.578;2023-07-09T14:42:45;39.70;66.30
12089;DHT22;6107;49.078;8.578;2023-07-09T14:47:44;40.10;70.40
12089;DHT22;6107;49.078;8.578;2023-07-09T14:50:11;40.30;64.30
12089;DHT22;6107;49.078;8.578;2023-07-09T14:52:37;40.60;63.50
12089;DHT22;6107;49.078;8.578;2023-07-09T14:55:04;41.00;63.00
12089;DHT22;6107;49.078;8.578;2023-07-09T14:57:30;41.00;67.20
12089;DHT22;6107;49.078;8.578;2023-07-09T14:59:56;40.70;66.20
12089;DHT22;6107;49.078;8.578;2023-07-09T15:02:36;40.60;58.60
12089;DHT22;6107;49.078;8.578;2023-07-09T15:05:04;40.60;59.40
12089;DHT22;6107;49.078;8.578;2023-07-09T15:07:30;40.10;64.90
12089;DHT22;6107;49.078;8.578;2023-07-09T15:09:57;40.00;67.00
12089;DHT22;6107;49.078;8.578;2023-07-09T15:12:27;39.00;74.40
12089;DHT22;6107;49.078;8.578;2023-07-09T15:14:59;37.70;75.70
12089;DHT22;6107;49.078;8.578;2023-07-09T15:17:26;36.80;77.40
12089;DHT22;6107;49.078;8.578;2023-07-09T15:19:51;36.90;79.30
12089;DHT22;6107;49.078;8.578;2023-07-09T15:22:32;36.80;82.70
12089;DHT22;6107;49.078;8.578;2023-07-09T15:24:58;36.90;82.90
12089;DHT22;6107;49.078;8.578;2023-07-09T15:27:24;36.70;84.30
12089;DHT22;6107;49.078;8.578;2023-07-09T15:29:50;35.70;87.20
12089;DHT22;6107;49.078;8.578;2023-07-09T15:32:16;35.60;85.30
12089;DHT22;6107;49.078;8.578;2023-07-09T15:34:42;35.50;86.90
12089;DHT22;6107;49.078;8.578;2023-07-09T15:37:17;35.70;82.80
12089;DHT22;6107;49.078;8.578;2023-07-09T15:39:43;35.00;87.70
12089;DHT22;6107;49.078;8.578;2023-07-09T15:42:13;34.70;89.10
12089;DHT22;6107;49.078;8.578;2023-07-09T15:44:39;34.00;90.70
12089;DHT22;6107;49.078;8.578;2023-07-09T15:47:05;34.10;91.30
12089;DHT22;6107;49.078;8.578;2023-07-09T15:49:31;34.40;90.00
12089;DHT22;6107;49.078;8.578;2023-07-09T15:51:57;33.60;91.30
12089;DHT22;6107;49.078;8.578;2023-07-09T15:54:24;33.30;92.30
12089;DHT22;6107;49.078;8.578;2023-07-09T15:56:51;33.60;92.10
12089;DHT22;6107;49.078;8.578;2023-07-09T15:59:38;33.00;93.20
12089;DHT22;6107;49.078;8.578;2023-07-09T16:02:11;32.50;93.70
12089;DHT22;6107;49.078;8.578;2023-07-09T16:04:43;32.50;94.70
12089;DHT22;6107;49.078;8.578;2023-07-09T16:07:10;32.60;94.40
12089;DHT22;6107;49.078;8.578;2023-07-09T16:09:35;32.70;94.20
12089;DHT22;6107;49.078;8.578;2023-07-09T16:12:03;33.20;93.70
12089;DHT22;6107;49.078;8.578;2023-07-09T16:14:33;33.30;92.70
12089;DHT22;6107;49.078;8.578;2023-07-09T16:17:00;33.50;92.80
12089;DHT22;6107;49.078;8.578;2023-07-09T16:19:28;33.70;92.50
12089;DHT22;6107;49.078;8.578;2023-07-09T16:22:00;33.60;92.60
12089;DHT22;6107;49.078;8.578;2023-07-09T16:24:31;33.70;93.60
12089;DHT22;6107;49.078;8.578;2023-07-09T16:26:58;33.40;94.20
12089;DHT22;6107;49.078;8.578;2023-07-09T16:29:30;32.70;96.10
12089;DHT22;6107;49.078;8.578;2023-07-09T16:31:57;32.50;97.50
12089;DHT22;6107;49.078;8.578;2023-07-09T16:34:24;32.30;97.40
12089;DHT22;6107;49.078;8.578;2023-07-09T16:36:50;32.10;97.60
12089;DHT22;6107;49.078;8.578;2023-07-09T16:41:58;32.00;98.00
12089;DHT22;6107;49.078;8.578;2023-07-09T16:44:24;32.60;97.40
12089;DHT22;6107;49.078;8.578;2023-07-09T16:46:51;32.80;96.90